sensor_id;sensor_type;location;lat;lon;timestamp;P1;durP1;ratioP1;P2;durP2;ratioP2
40048;SDS011;54524;55.740;37.544;2022-09-17T00:01:04;6.30;;;1.20;;
40048;SDS011;54524;55.740;37.544;2022-09-17T00:02:05;4.9;;;3.5;;
40048;SDS011;54524;55.740;37.544;2022-09-17T00:03:06;4.6;;;3.6;;
40048;SDS011;54524;55.740;37.544;2022-09-17T00:04:08;7;;;3.6;;
40048;SDS011;54524;55.740;37.544;2022-09-17T00:05:09;7.8;;;3.6;;
40048;SDS011;54524;55.740;37.544;2022-09-17T00:06:10;7.8;;;3.7;;
40048;SDS011;54524;55.740;37.544;2022-09-17T00:07:12;5.5;;;3.8;;
40048;SDS011;54524;55.740;37.544;2022-09-17T00:08:13;6.2;;;3.8;;
40048;SDS011;54524;55.740;37.544;2022-09-17T00:09:14;6.2;;;3.8;;
40048;SDS011;54524;55.740;37.544;2022-09-17T00:11:05;6.1;;;4.4;;
40048;SDS011;54524;55.740;37.544;2022-09-17T00:12:06;6.1;;;4.4;;
40048;SDS011;54524;55.740;37.544;2022-09-17T00:13:06;11.2;;;6.6;;
40048;SDS011;54524;55.740;37.544;2022-09-17T00:14:08;11;;;6.5;;
40048;SDS011;54524;55.740;37.544;2022-09-17T00:15:11;11;;;6.6;;
40048;SDS011;54524;55.740;37.544;2022-09-17T00:16:12;11.4;;;8.8;;
40048;SDS011;54524;55.740;37.544;2022-09-17T00:17:13;10.6;;;8.7;;
40048;SDS011;54524;55.740;37.544;2022-09-17T00:18:13;10.7;;;8.6;;
40048;SDS011;54524;55.740;37.544;2022-09-17T00:19:16;10.6;;;8.8;;
40048;SDS011;54524;55.740;37.544;2022-09-17T00:21:03;10.1;;;8.8;;
40048;SDS011;54524;55.740;37.544;2022-09-17T00:22:03;11.3;;;9.2;;
40048;SDS011;54524;55.740;37.544;2022-09-17T00:23:04;12;;;9.3;;
40048;SDS011;54524;55.740;37.544;2022-09-17T00:24:05;11.6;;;9.3;;
40048;SDS011;54524;55.740;37.544;2022-09-17T00:25:05;11.5;;;7.2;;
40048;SDS011;54524;55.740;37.544;2022-09-17T00:26:07;11.7;;;7.3;;
40048;SDS011;54524;55.740;37.544;2022-09-17T00:27:08;11.5;;;7.2;;
40048;SDS011;54524;55.740;37.544;2022-09-17T00:28:09;0;;;0;;
40048;SDS011;54524;55.740;37.544;2022-09-17T00:29:09;11.9;;;6.1;;
40048;SDS011;54524;55.740;37.544;2022-09-17T00:31:05;10.3;;;8.5;;
40048;SDS011;54524;55.740;37.544;2022-09-17T00:32:06;10.3;;;8.5;;
40048;SDS011;54524;55.740;37.544;2022-09-17T00:33:07;10.5;;;8.6;;
40048;SDS011;54524;55.740;37.544;2022-09-17T00:34:09;9.7;;;8.7;;
40048;SDS011;54524;55.740;37.544;2022-09-17T00:35:11;9.6;;;8.6;;
40048;SDS011;54524;55.740;37.544;2022-09-17T00:36:11;10.7;;;8.6;;
40048;SDS011;54524;55.740;37.544;2022-09-17T00:37:13;12.2;;;7.7;;
40048;SDS011;54524;55.740;37.544;2022-09-17T00:38:13;12.3;;;7.7;;
40048;SDS011;54524;55.740;37.544;2022-09-17T00:39:14;12.3;;;7.8;;
40048;SDS011;54524;55.740;37.544;2022-09-17T00:41:02;12.3;;;7.6;;
40048;SDS011;54524;55.740;37.544;2022-09-17T00:42:03;12;;;7.5;;
40048;SDS011;54524;55.740;37.544;2022-09-17T00:43:10;8.8;;;6.3;;
40048;SDS011;54524;55.740;37.544;2022-09-17T00:44:44;8.5;;;6.3;;
40048;SDS011;54524;55.740;37.544;2022-09-17T00:45:47;8.2;;;6.2;;
40048;SDS011;54524;55.740;37.544;2022-09-17T00:46:47;7.7;;;5.2;;
40048;SDS011;54524;55.740;37.544;2022-09-17T00:47:50;7.5;;;5.1;;
40048;SDS011;54524;55.740;37.544;2022-09-17T00:48:51;7.5;;;5.2;;
40048;SDS011;54524;55.740;37.544;2022-09-17T00:49:54;0;;;0;;
40048;SDS011;54524;55.740;37.544;2022-09-17T00:51:03;9.1;;;5.5;;
40048;SDS011;54524;55.740;37.544;2022-09-17T00:52:07;9;;;5.4;;
40048;SDS011;54524;55.740;37.544;2022-09-17T00:53:08;7.4;;;5.5;;
40048;SDS011;54524;55.740;37.544;2022-09-17T00:54:09;7.4;;;5.4;;
40048;SDS011;54524;55.740;37.544;2022-09-17T00:55:12;7.8;;;5.5;;
40048;SDS011;54524;55.740;37.544;2022-09-17T00:56:17;8.7;;;5.4;;
40048;SDS011;54524;55.740;37.544;2022-09-17T00:57:19;8.2;;;5.3;;
40048;SDS011;54524;55.740;37.544;2022-09-17T00:58:20;8.3;;;5.3;;
40048;SDS011;54524;55.740;37.544;2022-09-17T00:59:21;9;;;5.8;;
40048;SDS011;54524;55.740;37.544;2022-09-17T01:01:03;9.1;;;5.8;;
40048;SDS011;54524;55.740;37.544;2022-09-17T01:02:03;8.6;;;5.8;;
40048;SDS011;54524;55.740;37.544;2022-09-17T01:03:04;8.6;;;5.8;;
40048;SDS011;54524;55.740;37.544;2022-09-17T01:04:04;8.6;;;5.8;;
40048;SDS011;54524;55.740;37.544;2022-09-17T01:05:05;7.7;;;6.2;;
40048;SDS011;54524;55.740;37.544;2022-09-17T01:06:08;7.6;;;6.2;;
40048;SDS011;54524;55.740;37.544;2022-09-17T01:07:15;8;;;6.2;;
40048;SDS011;54524;55.740;37.544;2022-09-17T01:08:20;8.2;;;6.1;;
40048;SDS011;54524;55.740;37.544;2022-09-17T01:09:24;8.1;;;6.1;;
40048;SDS011;54524;55.740;37.544;2022-09-17T01:11:37;9.4;;;6.4;;
40048;SDS011;54524;55.740;37.544;2022-09-17T01:12:45;9.5;;;6.4;;
40048;SDS011;54524;55.740;37.544;2022-09-17T01:13:51;9.2;;;6.4;;
40048;SDS011;54524;55.740;37.544;2022-09-17T01:15:04;8.5;;;6.3;;
40048;SDS011;54524;55.740;37.544;2022-09-17T01:16:08;8.6;;;6.3;;
40048;SDS011;54524;55.740;37.544;2022-09-17T01:17:14;8.5;;;6.3;;
40048;SDS011;54524;55.740;37.544;2022-09-17T01:18:21;8.5;;;6.3;;
40048;SDS011;54524;55.740;37.544;2022-09-17T01:19:40;8.6;;;6.3;;
40048;SDS011;54524;55.740;37.544;2022-09-17T01:21:37;8;;;6.2;;
40048;SDS011;54524;55.740;37.544;2022-09-17T01:22:41;8.2;;;6.3;;
40048;SDS011;54524;55.740;37.544;2022-09-17T01:23:51;6.8;;;4.7;;
40048;SDS011;54524;55.740;37.544;2022-09-17T01:24:59;6.6;;;4.7;;
40048;SDS011;54524;55.740;37.544;2022-09-17T01:26:10;9.8;;;5.5;;
40048;SDS011;54524;55.740;37.544;2022-09-17T01:27:21;9.8;;;5.4;;
40048;SDS011;54524;55.740;37.544;2022-09-17T01:28:29;11.9;;;5.5;;
40048;SDS011;54524;55.740;37.544;2022-09-17T01:29:36;7.5;;;5.6;;
40048;SDS011;54524;55.740;37.544;2022-09-17T01:31:03;7.8;;;5.7;;
40048;SDS011;54524;55.740;37.544;2022-09-17T01:32:06;7.2;;;5.6;;
40048;SDS011;54524;55.740;37.544;2022-09-17T01:33:09;7.3;;;5.7;;
40048;SDS011;54524;55.740;37.544;2022-09-17T01:34:15;7.1;;;5.7;;
40048;SDS011;54524;55.740;37.544;2022-09-17T01:35:19;7;;;5.4;;
40048;SDS011;54524;55.740;37.544;2022-09-17T01:36:28;7.3;;;5.5;;
40048;SDS011;54524;55.740;37.544;2022-09-17T01:37:32;7.2;;;5.5;;
40048;SDS011;54524;55.740;37.544;2022-09-17T01:38:36;7.2;;;5.7;;
40048;SDS011;54524;55.740;37.544;2022-09-17T01:39:41;7.2;;;5.7;;
40048;SDS011;54524;55.740;37.544;2022-09-17T01:41:03;7.3;;;5.7;;
40048;SDS011;54524;55.740;37.544;2022-09-17T01:42:10;5.3;;;4.5;;
40048;SDS011;54524;55.740;37.544;2022-09-17T01:43:15;5.6;;;4.6;;
40048;SDS011;54524;55.740;37.544;2022-09-17T01:44:22;6.2;;;4.9;;
40048;SDS011;54524;55.740;37.544;2022-09-17T01:45:26;6.3;;;4.8;;
40048;SDS011;54524;55.740;37.544;2022-09-17T01:46:29;7;;;4.8;;
40048;SDS011;54524;55.740;37.544;2022-09-17T01:47:33;6.3;;;4.8;;
40048;SDS011;54524;55.740;37.544;2022-09-17T01:48:35;6.3;;;4.8;;
40048;SDS011;54524;55.740;37.544;2022-09-17T01:49:38;6.3;;;4.8;;
40048;SDS011;54524;55.740;37.544;2022-09-17T01:51:04;7.1;;;4.3;;
40048;SDS011;54524;55.740;37.544;2022-09-17T01:52:06;6.9;;;4.3;;
40048;SDS011;54524;55.740;37.544;2022-09-17T01:53:08;6.8;;;4.2;;
40048;SDS011;54524;55.740;37.544;2022-09-17T01:54:10;5.6;;;3.5;;
40048;SDS011;54524;55.740;37.544;2022-09-17T01:55:13;5.4;;;3.5;;
40048;SDS011;54524;55.740;37.544;2022-09-17T01:56:15;5.4;;;3.5;;
40048;SDS011;54524;55.740;37.544;2022-09-17T01:57:18;5.4;;;3.5;;
40048;SDS011;54524;55.740;37.544;2022-09-17T01:58:22;5.7;;;3.6;;
40048;SDS011;54524;55.740;37.544;2022-09-17T01:59:26;5.4;;;3.6;;
40048;SDS011;54524;55.740;37.544;2022-09-17T02:01:04;4.9;;;3.3;;
40048;SDS011;54524;55.740;37.544;2022-09-17T02:02:06;5.2;;;3.3;;
40048;SDS011;54524;55.740;37.544;2022-09-17T02:03:08;5.9;;;3.2;;
40048;SDS011;54524;55.740;37.544;2022-09-17T02:04:13;5.8;;;3.2;;
40048;SDS011;54524;55.740;37.544;2022-09-17T02:05:15;5.2;;;3.2;;
40048;SDS011;54524;55.740;37.544;2022-09-17T02:06:19;4.3;;;2.9;;
40048;SDS011;54524;55.740;37.544;2022-09-17T02:07:21;4.4;;;2.9;;
40048;SDS011;54524;55.740;37.544;2022-09-17T02:08:23;4.3;;;3;;
40048;SDS011;54524;55.740;37.544;2022-09-17T02:09:26;4.3;;;2.7;;
40048;SDS011;54524;55.740;37.544;2022-09-17T02:11:03;4.3;;;2.7;;
40048;SDS011;54524;55.740;37.544;2022-09-17T02:12:09;4.8;;;2.7;;
40048;SDS011;54524;55.740;37.544;2022-09-17T02:13:12;4.8;;;2.7;;
40048;SDS011;54524;55.740;37.544;2022-09-17T02:14:15;4.8;;;2.7;;
40048;SDS011;54524;55.740;37.544;2022-09-17T02:15:19;4.4;;;2.7;;
40048;SDS011;54524;55.740;37.544;2022-09-17T02:16:21;4.6;;;2.7;;
40048;SDS011;54524;55.740;37.544;2022-09-17T02:17:24;4.6;;;2.7;;
40048;SDS011;54524;55.740;37.544;2022-09-17T02:18:27;5.3;;;2.6;;
40048;SDS011;54524;55.740;37.544;2022-09-17T02:19:29;5.2;;;2.5;;
40048;SDS011;54524;55.740;37.544;2022-09-17T02:21:04;5;;;2.5;;
40048;SDS011;54524;55.740;37.544;2022-09-17T02:22:11;4.1;;;2.6;;
40048;SDS011;54524;55.740;37.544;2022-09-17T02:23:15;4.3;;;2.6;;
40048;SDS011;54524;55.740;37.544;2022-09-17T02:24:18;4.2;;;2.6;;
40048;SDS011;54524;55.740;37.544;2022-09-17T02:25:22;5;;;2.3;;
40048;SDS011;54524;55.740;37.544;2022-09-17T02:26:25;4.8;;;2.2;;
40048;SDS011;54524;55.740;37.544;2022-09-17T02:27:30;5.1;;;2.5;;
40048;SDS011;54524;55.740;37.544;2022-09-17T02:28:36;4.6;;;2.4;;
40048;SDS011;54524;55.740;37.544;2022-09-17T02:29:39;4.6;;;2.4;;
40048;SDS011;54524;55.740;37.544;2022-09-17T02:31:02;4.6;;;2.1;;
40048;SDS011;54524;55.740;37.544;2022-09-17T02:32:03;4.6;;;2;;
40048;SDS011;54524;55.740;37.544;2022-09-17T02:33:05;4.5;;;2.1;;
40048;SDS011;54524;55.740;37.544;2022-09-17T02:34:06;3.4;;;2.2;;
40048;SDS011;54524;55.740;37.544;2022-09-17T02:35:08;3.3;;;2.2;;
40048;SDS011;54524;55.740;37.544;2022-09-17T02:36:08;3.4;;;2.2;;
40048;SDS011;54524;55.740;37.544;2022-09-17T02:37:09;3.4;;;1.9;;
40048;SDS011;54524;55.740;37.544;2022-09-17T02:38:10;3.5;;;1.9;;
40048;SDS011;54524;55.740;37.544;2022-09-17T02:39:10;3.4;;;1.8;;
40048;SDS011;54524;55.740;37.544;2022-09-17T02:41:04;4.4;;;2;;
40048;SDS011;54524;55.740;37.544;2022-09-17T02:42:08;4.3;;;1.9;;
40048;SDS011;54524;55.740;37.544;2022-09-17T02:43:17;3.9;;;1.8;;
40048;SDS011;54524;55.740;37.544;2022-09-17T02:44:21;3.9;;;1.8;;
40048;SDS011;54524;55.740;37.544;2022-09-17T02:45:26;3.9;;;1.8;;
40048;SDS011;54524;55.740;37.544;2022-09-17T02:46:34;3.3;;;1.8;;
40048;SDS011;54524;55.740;37.544;2022-09-17T02:47:41;4.3;;;2;;
40048;SDS011;54524;55.740;37.544;2022-09-17T02:48:53;4.4;;;2;;
40048;SDS011;54524;55.740;37.544;2022-09-17T02:51:05;3.2;;;1.9;;
40048;SDS011;54524;55.740;37.544;2022-09-17T02:52:11;3.2;;;1.9;;
40048;SDS011;54524;55.740;37.544;2022-09-17T02:53:19;4.6;;;1.8;;
40048;SDS011;54524;55.740;37.544;2022-09-17T02:54:24;4.7;;;1.8;;
40048;SDS011;54524;55.740;37.544;2022-09-17T02:55:29;4.6;;;1.7;;
40048;SDS011;54524;55.740;37.544;2022-09-17T02:56:35;4.6;;;1.7;;
40048;SDS011;54524;55.740;37.544;2022-09-17T02:57:42;4.2;;;1.8;;
40048;SDS011;54524;55.740;37.544;2022-09-17T02:58:46;4.2;;;1.8;;
40048;SDS011;54524;55.740;37.544;2022-09-17T02:59:50;2.9;;;1.7;;
40048;SDS011;54524;55.740;37.544;2022-09-17T03:01:15;3;;;1.8;;
40048;SDS011;54524;55.740;37.544;2022-09-17T03:02:19;3.2;;;1.8;;
40048;SDS011;54524;55.740;37.544;2022-09-17T03:03:22;3.2;;;1.8;;
40048;SDS011;54524;55.740;37.544;2022-09-17T03:04:26;3.3;;;1.8;;
40048;SDS011;54524;55.740;37.544;2022-09-17T03:05:28;2.3;;;1.7;;
40048;SDS011;54524;55.740;37.544;2022-09-17T03:06:29;2.3;;;1.7;;
40048;SDS011;54524;55.740;37.544;2022-09-17T03:07:30;2.1;;;1.7;;
40048;SDS011;54524;55.740;37.544;2022-09-17T03:08:33;4.8;;;1.8;;
40048;SDS011;54524;55.740;37.544;2022-09-17T03:09:34;4.8;;;1.8;;
40048;SDS011;54524;55.740;37.544;2022-09-17T03:11:03;4.1;;;1.7;;
40048;SDS011;54524;55.740;37.544;2022-09-17T03:12:04;4.7;;;1.8;;
40048;SDS011;54524;55.740;37.544;2022-09-17T03:13:05;4.6;;;1.8;;
40048;SDS011;54524;55.740;37.544;2022-09-17T03:14:05;6.1;;;1.6;;
40048;SDS011;54524;55.740;37.544;2022-09-17T03:15:06;6.1;;;1.6;;
40048;SDS011;54524;55.740;37.544;2022-09-17T03:16:07;5.9;;;1.6;;
40048;SDS011;54524;55.740;37.544;2022-09-17T03:17:08;2.7;;;1.8;;
40048;SDS011;54524;55.740;37.544;2022-09-17T03:18:10;2.7;;;1.8;;
40048;SDS011;54524;55.740;37.544;2022-09-17T03:19:10;2.7;;;1.8;;
40048;SDS011;54524;55.740;37.544;2022-09-17T03:21:02;5.1;;;1.7;;
40048;SDS011;54524;55.740;37.544;2022-09-17T03:22:03;5.9;;;1.7;;
40048;SDS011;54524;55.740;37.544;2022-09-17T03:23:03;5.6;;;1.7;;
40048;SDS011;54524;55.740;37.544;2022-09-17T03:24:04;3.8;;;1.9;;
40048;SDS011;54524;55.740;37.544;2022-09-17T03:25:05;3.5;;;1.8;;
40048;SDS011;54524;55.740;37.544;2022-09-17T03:26:05;3.4;;;1.8;;
40048;SDS011;54524;55.740;37.544;2022-09-17T03:27:06;4.7;;;2;;
40048;SDS011;54524;55.740;37.544;2022-09-17T03:28:07;4.7;;;2;;
40048;SDS011;54524;55.740;37.544;2022-09-17T03:29:07;4.4;;;2;;
40048;SDS011;54524;55.740;37.544;2022-09-17T03:31:03;4.1;;;1.9;;
40048;SDS011;54524;55.740;37.544;2022-09-17T03:32:04;4.2;;;1.9;;
40048;SDS011;54524;55.740;37.544;2022-09-17T03:33:05;3.9;;;1.8;;
40048;SDS011;54524;55.740;37.544;2022-09-17T03:34:06;3.9;;;1.8;;
40048;SDS011;54524;55.740;37.544;2022-09-17T03:35:06;3.4;;;1.8;;
40048;SDS011;54524;55.740;37.544;2022-09-17T03:36:07;4.6;;;2.1;;
40048;SDS011;54524;55.740;37.544;2022-09-17T03:37:08;4.4;;;2.1;;
40048;SDS011;54524;55.740;37.544;2022-09-17T03:38:09;4.5;;;2.1;;
40048;SDS011;54524;55.740;37.544;2022-09-17T03:39:09;4.9;;;2;;
40048;SDS011;54524;55.740;37.544;2022-09-17T03:41:04;4.1;;;1.9;;
40048;SDS011;54524;55.740;37.544;2022-09-17T03:42:06;4.7;;;1.7;;
40048;SDS011;54524;55.740;37.544;2022-09-17T03:43:07;4.8;;;1.8;;
40048;SDS011;54524;55.740;37.544;2022-09-17T03:44:07;4.8;;;1.8;;
40048;SDS011;54524;55.740;37.544;2022-09-17T03:45:09;4;;;2;;
40048;SDS011;54524;55.740;37.544;2022-09-17T03:46:10;3.7;;;2;;
40048;SDS011;54524;55.740;37.544;2022-09-17T03:47:11;3.6;;;2;;
40048;SDS011;54524;55.740;37.544;2022-09-17T03:48:11;4.7;;;2.1;;
40048;SDS011;54524;55.740;37.544;2022-09-17T03:49:12;4.9;;;2.1;;
40048;SDS011;54524;55.740;37.544;2022-09-17T03:51:03;3.6;;;1.9;;
40048;SDS011;54524;55.740;37.544;2022-09-17T03:52:03;3.7;;;1.9;;
40048;SDS011;54524;55.740;37.544;2022-09-17T03:53:04;3.7;;;2;;
40048;SDS011;54524;55.740;37.544;2022-09-17T03:54:05;4.9;;;2;;
40048;SDS011;54524;55.740;37.544;2022-09-17T03:55:06;5;;;2;;
40048;SDS011;54524;55.740;37.544;2022-09-17T03:56:07;5;;;2;;
40048;SDS011;54524;55.740;37.544;2022-09-17T03:57:08;7.8;;;2.2;;
40048;SDS011;54524;55.740;37.544;2022-09-17T03:58:08;7.9;;;2.2;;
40048;SDS011;54524;55.740;37.544;2022-09-17T03:59:09;8.3;;;2.2;;
40048;SDS011;54524;55.740;37.544;2022-09-17T04:01:03;6.30;;;1.20;;
40048;SDS011;54524;55.740;37.544;2022-09-17T04:02:04;4.4;;;2.3;;
40048;SDS011;54524;55.740;37.544;2022-09-17T04:03:05;5.2;;;2;;
40048;SDS011;54524;55.740;37.544;2022-09-17T04:04:06;5.2;;;2;;
40048;SDS011;54524;55.740;37.544;2022-09-17T04:05:07;5.3;;;1.9;;
40048;SDS011;54524;55.740;37.544;2022-09-17T04:06:08;4.9;;;2.5;;
40048;SDS011;54524;55.740;37.544;2022-09-17T04:07:09;4.9;;;2.4;;
40048;SDS011;54524;55.740;37.544;2022-09-17T04:08:10;4.9;;;2.4;;
40048;SDS011;54524;55.740;37.544;2022-09-17T04:09:10;6.5;;;2.5;;
40048;SDS011;54524;55.740;37.544;2022-09-17T04:11:03;6.7;;;2.5;;
40048;SDS011;54524;55.740;37.544;2022-09-17T04:12:03;6.6;;;2.5;;
40048;SDS011;54524;55.740;37.544;2022-09-17T04:13:04;6.4;;;2.1;;
40048;SDS011;54524;55.740;37.544;2022-09-17T04:14:04;6.7;;;2.2;;
40048;SDS011;54524;55.740;37.544;2022-09-17T04:15:05;6.7;;;2.1;;
40048;SDS011;54524;55.740;37.544;2022-09-17T04:16:06;4.4;;;2.1;;
40048;SDS011;54524;55.740;37.544;2022-09-17T04:17:07;4.4;;;2.1;;
40048;SDS011;54524;55.740;37.544;2022-09-17T04:18:07;4.9;;;2;;
40048;SDS011;54524;55.740;37.544;2022-09-17T04:19:08;4.3;;;2;;
40048;SDS011;54524;55.740;37.544;2022-09-17T04:21:02;4.5;;;2;;
40048;SDS011;54524;55.740;37.544;2022-09-17T04:22:03;4.1;;;1.9;;
40048;SDS011;54524;55.740;37.544;2022-09-17T04:23:04;4;;;1.8;;
40048;SDS011;54524;55.740;37.544;2022-09-17T04:24:06;3.9;;;1.8;;
40048;SDS011;54524;55.740;37.544;2022-09-17T04:25:07;3.9;;;2;;
40048;SDS011;54524;55.740;37.544;2022-09-17T04:26:07;3.7;;;1.9;;
40048;SDS011;54524;55.740;37.544;2022-09-17T04:27:08;3.7;;;2;;
40048;SDS011;54524;55.740;37.544;2022-09-17T04:28:09;2.9;;;2;;
40048;SDS011;54524;55.740;37.544;2022-09-17T04:29:09;3.5;;;2.1;;
40048;SDS011;54524;55.740;37.544;2022-09-17T04:31:02;5.2;;;2.1;;
40048;SDS011;54524;55.740;37.544;2022-09-17T04:32:03;5.2;;;2.1;;
40048;SDS011;54524;55.740;37.544;2022-09-17T04:33:03;5.2;;;2.1;;
40048;SDS011;54524;55.740;37.544;2022-09-17T04:34:04;5.4;;;2.4;;
40048;SDS011;54524;55.740;37.544;2022-09-17T04:35:05;5.4;;;2.4;;
40048;SDS011;54524;55.740;37.544;2022-09-17T04:36:05;5.5;;;2.4;;
40048;SDS011;54524;55.740;37.544;2022-09-17T04:37:07;4.4;;;2.1;;
40048;SDS011;54524;55.740;37.544;2022-09-17T04:38:08;4.3;;;2.1;;
40048;SDS011;54524;55.740;37.544;2022-09-17T04:39:09;4.3;;;2.1;;
40048;SDS011;54524;55.740;37.544;2022-09-17T04:41:05;7.4;;;2.3;;
40048;SDS011;54524;55.740;37.544;2022-09-17T04:42:05;7.6;;;2.3;;
40048;SDS011;54524;55.740;37.544;2022-09-17T04:43:06;7.7;;;2.1;;
40048;SDS011;54524;55.740;37.544;2022-09-17T04:44:06;7.6;;;2.1;;
40048;SDS011;54524;55.740;37.544;2022-09-17T04:45:07;6.4;;;2;;
40048;SDS011;54524;55.740;37.544;2022-09-17T04:46:08;2.6;;;1.9;;
40048;SDS011;54524;55.740;37.544;2022-09-17T04:47:09;2.7;;;1.9;;
40048;SDS011;54524;55.740;37.544;2022-09-17T04:48:10;2.6;;;1.9;;
40048;SDS011;54524;55.740;37.544;2022-09-17T04:49:10;4.7;;;2.2;;
40048;SDS011;54524;55.740;37.544;2022-09-17T04:51:03;4.7;;;2.2;;
40048;SDS011;54524;55.740;37.544;2022-09-17T04:52:03;4.7;;;2.2;;
40048;SDS011;54524;55.740;37.544;2022-09-17T04:53:04;4.7;;;2;;
40048;SDS011;54524;55.740;37.544;2022-09-17T04:54:04;4.7;;;2;;
40048;SDS011;54524;55.740;37.544;2022-09-17T04:55:05;4.7;;;2;;
40048;SDS011;54524;55.740;37.544;2022-09-17T04:56:06;4.7;;;2.1;;
40048;SDS011;54524;55.740;37.544;2022-09-17T04:57:07;4.8;;;2.1;;
40048;SDS011;54524;55.740;37.544;2022-09-17T04:58:07;4.9;;;2.1;;
40048;SDS011;54524;55.740;37.544;2022-09-17T04:59:08;5.2;;;2.1;;
40048;SDS011;54524;55.740;37.544;2022-09-17T05:01:02;5.3;;;2.1;;
40048;SDS011;54524;55.740;37.544;2022-09-17T05:02:03;4.2;;;2.2;;
40048;SDS011;54524;55.740;37.544;2022-09-17T05:03:03;4;;;2.2;;
40048;SDS011;54524;55.740;37.544;2022-09-17T05:04:04;4.1;;;2.2;;
40048;SDS011;54524;55.740;37.544;2022-09-17T05:05:04;5;;;2.3;;
40048;SDS011;54524;55.740;37.544;2022-09-17T05:06:05;4.8;;;2.3;;
40048;SDS011;54524;55.740;37.544;2022-09-17T05:07:06;4.9;;;2.3;;
40048;SDS011;54524;55.740;37.544;2022-09-17T05:08:07;5.6;;;2.4;;
40048;SDS011;54524;55.740;37.544;2022-09-17T05:09:07;5.4;;;2.3;;
40048;SDS011;54524;55.740;37.544;2022-09-17T05:11:03;4.9;;;2.2;;
40048;SDS011;54524;55.740;37.544;2022-09-17T05:12:03;5.3;;;2.3;;
40048;SDS011;54524;55.740;37.544;2022-09-17T05:13:04;5.6;;;2.2;;
40048;SDS011;54524;55.740;37.544;2022-09-17T05:14:04;3.6;;;2.2;;
40048;SDS011;54524;55.740;37.544;2022-09-17T05:15:05;3.7;;;2.2;;
40048;SDS011;54524;55.740;37.544;2022-09-17T05:16:06;3.7;;;2.2;;
40048;SDS011;54524;55.740;37.544;2022-09-17T05:17:07;8.1;;;2.2;;
40048;SDS011;54524;55.740;37.544;2022-09-17T05:18:07;7.8;;;2.1;;
40048;SDS011;54524;55.740;37.544;2022-09-17T05:19:08;7.1;;;2.2;;
40048;SDS011;54524;55.740;37.544;2022-09-17T05:21:03;4.2;;;2.2;;
40048;SDS011;54524;55.740;37.544;2022-09-17T05:22:03;4.6;;;2.3;;
40048;SDS011;54524;55.740;37.544;2022-09-17T05:23:04;6.8;;;2.2;;
40048;SDS011;54524;55.740;37.544;2022-09-17T05:24:05;7;;;2.3;;
40048;SDS011;54524;55.740;37.544;2022-09-17T05:25:05;6.8;;;2.3;;
40048;SDS011;54524;55.740;37.544;2022-09-17T05:26:06;4.6;;;2.4;;
40048;SDS011;54524;55.740;37.544;2022-09-17T05:27:07;4.4;;;2.4;;
40048;SDS011;54524;55.740;37.544;2022-09-17T05:28:08;4.6;;;2.4;;
40048;SDS011;54524;55.740;37.544;2022-09-17T05:29:08;5.4;;;2.5;;
40048;SDS011;54524;55.740;37.544;2022-09-17T05:31:03;5.4;;;2.6;;
40048;SDS011;54524;55.740;37.544;2022-09-17T05:32:04;5.5;;;2.8;;
40048;SDS011;54524;55.740;37.544;2022-09-17T05:33:05;5.6;;;2.8;;
40048;SDS011;54524;55.740;37.544;2022-09-17T05:34:07;5.5;;;2.8;;
40048;SDS011;54524;55.740;37.544;2022-09-17T05:35:07;6.7;;;2.1;;
40048;SDS011;54524;55.740;37.544;2022-09-17T05:36:08;6.8;;;2.1;;
40048;SDS011;54524;55.740;37.544;2022-09-17T05:37:09;6.8;;;2.1;;
40048;SDS011;54524;55.740;37.544;2022-09-17T05:38:10;5.2;;;1.9;;
40048;SDS011;54524;55.740;37.544;2022-09-17T05:39:11;4.8;;;1.9;;
40048;SDS011;54524;55.740;37.544;2022-09-17T05:41:03;4;;;2.2;;
40048;SDS011;54524;55.740;37.544;2022-09-17T05:42:04;4.3;;;2.2;;
40048;SDS011;54524;55.740;37.544;2022-09-17T05:43:05;4.2;;;2.2;;
40048;SDS011;54524;55.740;37.544;2022-09-17T05:44:06;2.6;;;2;;
40048;SDS011;54524;55.740;37.544;2022-09-17T05:45:07;2.6;;;2;;
40048;SDS011;54524;55.740;37.544;2022-09-17T05:46:08;3.6;;;2;;
40048;SDS011;54524;55.740;37.544;2022-09-17T05:47:10;4;;;2.1;;
40048;SDS011;54524;55.740;37.544;2022-09-17T05:48:11;4.1;;;2.1;;
40048;SDS011;54524;55.740;37.544;2022-09-17T05:49:12;4.1;;;2.1;;
40048;SDS011;54524;55.740;37.544;2022-09-17T05:51:03;4.4;;;1.9;;
40048;SDS011;54524;55.740;37.544;2022-09-17T05:52:04;4.4;;;1.9;;
40048;SDS011;54524;55.740;37.544;2022-09-17T05:53:05;4.4;;;1.9;;
40048;SDS011;54524;55.740;37.544;2022-09-17T05:54:06;6.3;;;2;;
40048;SDS011;54524;55.740;37.544;2022-09-17T05:55:07;6.2;;;1.9;;
40048;SDS011;54524;55.740;37.544;2022-09-17T05:56:08;6.1;;;1.9;;
40048;SDS011;54524;55.740;37.544;2022-09-17T05:57:09;5.6;;;1.7;;
40048;SDS011;54524;55.740;37.544;2022-09-17T05:58:10;5.6;;;1.7;;
40048;SDS011;54524;55.740;37.544;2022-09-17T05:59:11;5.5;;;1.7;;
40048;SDS011;54524;55.740;37.544;2022-09-17T06:01:02;4.1;;;1.9;;
40048;SDS011;54524;55.740;37.544;2022-09-17T06:02:03;4.1;;;1.9;;
40048;SDS011;54524;55.740;37.544;2022-09-17T06:03:04;4.3;;;1.9;;
40048;SDS011;54524;55.740;37.544;2022-09-17T06:04:05;2.8;;;1.6;;
40048;SDS011;54524;55.740;37.544;2022-09-17T06:05:05;2.9;;;1.6;;
40048;SDS011;54524;55.740;37.544;2022-09-17T06:06:06;2.8;;;1.5;;
40048;SDS011;54524;55.740;37.544;2022-09-17T06:07:07;5.3;;;2;;
40048;SDS011;54524;55.740;37.544;2022-09-17T06:08:08;5.5;;;2;;
40048;SDS011;54524;55.740;37.544;2022-09-17T06:09:09;5.5;;;2;;
40048;SDS011;54524;55.740;37.544;2022-09-17T06:11:03;4.9;;;1.9;;
40048;SDS011;54524;55.740;37.544;2022-09-17T06:12:04;5.4;;;2;;
40048;SDS011;54524;55.740;37.544;2022-09-17T06:13:05;6.9;;;1.9;;
40048;SDS011;54524;55.740;37.544;2022-09-17T06:14:05;6.8;;;1.8;;
40048;SDS011;54524;55.740;37.544;2022-09-17T06:15:06;6.8;;;1.8;;
40048;SDS011;54524;55.740;37.544;2022-09-17T06:16:07;4.5;;;1.7;;
40048;SDS011;54524;55.740;37.544;2022-09-17T06:17:08;4.5;;;1.7;;
40048;SDS011;54524;55.740;37.544;2022-09-17T06:18:09;4.4;;;1.7;;
40048;SDS011;54524;55.740;37.544;2022-09-17T06:19:09;4.3;;;1.7;;
40048;SDS011;54524;55.740;37.544;2022-09-17T06:21:03;4.6;;;1.9;;
40048;SDS011;54524;55.740;37.544;2022-09-17T06:22:04;4.8;;;1.9;;
40048;SDS011;54524;55.740;37.544;2022-09-17T06:23:05;6.8;;;2;;
40048;SDS011;54524;55.740;37.544;2022-09-17T06:24:07;6.7;;;2;;
40048;SDS011;54524;55.740;37.544;2022-09-17T06:25:08;6.7;;;2;;
40048;SDS011;54524;55.740;37.544;2022-09-17T06:26:09;8.4;;;2.2;;
40048;SDS011;54524;55.740;37.544;2022-09-17T06:27:10;9.4;;;2.2;;
40048;SDS011;54524;55.740;37.544;2022-09-17T06:28:10;9.3;;;2.2;;
40048;SDS011;54524;55.740;37.544;2022-09-17T06:29:11;7.3;;;1.9;;
40048;SDS011;54524;55.740;37.544;2022-09-17T06:31:03;6.9;;;1.8;;
40048;SDS011;54524;55.740;37.544;2022-09-17T06:32:03;5.2;;;1.8;;
40048;SDS011;54524;55.740;37.544;2022-09-17T06:33:04;5.1;;;1.8;;
40048;SDS011;54524;55.740;37.544;2022-09-17T06:34:04;5;;;1.7;;
40048;SDS011;54524;55.740;37.544;2022-09-17T06:35:05;5.4;;;1.7;;
40048;SDS011;54524;55.740;37.544;2022-09-17T06:36:07;5.4;;;1.7;;
40048;SDS011;54524;55.740;37.544;2022-09-17T06:37:09;5.4;;;1.7;;
40048;SDS011;54524;55.740;37.544;2022-09-17T06:38:09;4.9;;;1.7;;
40048;SDS011;54524;55.740;37.544;2022-09-17T06:39:10;5.1;;;1.7;;
40048;SDS011;54524;55.740;37.544;2022-09-17T06:41:03;5.3;;;1.8;;
40048;SDS011;54524;55.740;37.544;2022-09-17T06:42:03;5.2;;;1.8;;
40048;SDS011;54524;55.740;37.544;2022-09-17T06:43:04;5;;;1.8;;
40048;SDS011;54524;55.740;37.544;2022-09-17T06:44:05;5;;;1.8;;
40048;SDS011;54524;55.740;37.544;2022-09-17T06:45:05;5.1;;;2;;
40048;SDS011;54524;55.740;37.544;2022-09-17T06:46:06;6.1;;;2;;
40048;SDS011;54524;55.740;37.544;2022-09-17T06:47:08;6;;;2;;
40048;SDS011;54524;55.740;37.544;2022-09-17T06:48:09;5.2;;;1.7;;
40048;SDS011;54524;55.740;37.544;2022-09-17T06:49:09;5.7;;;1.7;;
40048;SDS011;54524;55.740;37.544;2022-09-17T06:51:04;5.8;;;1.5;;
40048;SDS011;54524;55.740;37.544;2022-09-17T06:52:04;5;;;1.6;;
40048;SDS011;54524;55.740;37.544;2022-09-17T06:53:05;5.1;;;1.6;;